Winnisquam, NH

10:30 PM EDT on July 26, 2016 (GMT -0400)
Lake Winisquam - Mohawk Island | | Change Station

Elev 495 ft 43.49 °N, 71.51 °W | Updated 12 seconds ago

Clear
Clear
73.6 °F
Feels Like 75 °F
N
0.0
Wind Variable Wind from NE
Gusts 0.0 mph

Today
High -- | Low -- °F
--% Chance of Precip.
Yesterday
High -- | Low -- °F
Precip. -- in
Pressure 29.93 in
Visibility 10.0 miles
Clouds Clear
Heat Index 75 °F
Dew Point 65 °F
Humidity 75%
Rainfall 0.01 in
Snow Depth Not available.
5:29 AM 8:14 PM
Waning Gibbous, 48% visible
METAR KLCI 270156Z AUTO 25004KT 10SM CLR 22/16 A2990 RMK AO2 SLP133 T02220156 PNO $
Pressure 29.93 in
Visibility 10.0 miles
Clouds Clear
Heat Index 75 °F
Dew Point 65 °F
Humidity 75%
Rainfall 0.01 in
Snow Depth Not available.
5:29 AM 8:14 PM
Waning Gibbous, 48% visible
METAR KLCI 270156Z AUTO 25004KT 10SM CLR 22/16 A2990 RMK AO2 SLP133 T02220156 PNO $

10-Day Weather Forecast

Almanac

Astronomy

Jul. 26, 2016 Rise Set
Actual Time
Civil Twilight
Nautical Twilight
Astronomical Twilight
Moon
Length of Visible Light
Length of Day
Tomorrow will be .
, % of the Moon is Illuminated

Today's Extremes

State Highs State Lows

Community

WunderPhotos

Upload Photos

1,927,777 photos uploaded!

WunderBlog® & News

Nearby

Air Quality

  Air Quality AQ Index Pollutant
Not available.

Snow Depth

Station Depth Elevation

Earthquake Activity

City Distance Mag. Time & Date
Minimum magnitude displayed is 2.5.

Coastal Water Temperatures

Place Temperature

Stations

Nearby Weather Stations

Station Location Temp. Windchill Dew Point Humidity Wind Precip. Elev Updated Type
                   

Watches & Warnings

There are currently no watches in effect.